Cols Grove, Ohio
Current Conditions -  °F | °C
As of 12:53 AM on Thursday 27 Nov 2014 (Local Time) from KAOH Reporting Station
Overcast Overcast  
Wind Chill: 24°   Ceiling: 3200
Heat Index: 31°   Visibility: 9mi
Dew Point: 25°   Wind: 7mph
Humidity: 79%   Direction: 330°NNW
Pressure: 30.07"   Gusts: NA
Location:  40.9068°N, 84.0923°W
Report Text: KAOH 270553Z AUTO 33006KT 9SM OVC032 M01/M04 A3007 RMK AO2 SLP192 T10061039 10000 21006 53002
Loading
Personal Weather Stations






























Interactive Weather Map New forecast layout! Learn more

10-Day Weather Forecast

Advertisements
Track Severe Weather on mobile